Terminal Aerodrome Forecast
Issued by NWS

Home | Current Version | Previous Version | Text Only | Print | Product List | Glossary On
Versions: 1 2 3 4 5 6 7 8 9 10 11 12 13
357
FTUS42 TJSJ 251128
TAFIST
TAF
TIST 251128Z 2512/2612 09008KT P6SM FEW030
     FM251300 11012KT P6SM SCT025
     FM252200 08008KT P6SM FEW025=

USA.gov is the U.S. government's official web portal to all federal, state and local government web resources and services.